createdAt,value
2023-05-15T00:02:16.886Z,56.99
2023-05-15T00:04:44.126Z,56.97
2023-05-15T00:07:11.353Z,56.75
2023-05-15T00:09:38.591Z,56.64
2023-05-15T00:12:06.367Z,56.81
2023-05-15T00:14:33.501Z,57.05
2023-05-15T00:17:00.656Z,57.16
2023-05-15T00:19:27.914Z,57.31
2023-05-15T00:21:55.806Z,57.14
2023-05-15T00:24:22.926Z,57.14
2023-05-15T00:26:50.075Z,57.10
2023-05-15T00:29:17.247Z,56.72
2023-05-15T00:31:45.417Z,56.54
2023-05-15T00:34:12.661Z,56.32
2023-05-15T00:36:39.815Z,56.18
2023-05-15T00:39:06.964Z,55.89
2023-05-15T00:41:34.322Z,55.82
2023-05-15T00:44:01.791Z,55.74
2023-05-15T00:46:29.329Z,55.82
2023-05-15T00:48:56.491Z,55.87
2023-05-15T00:53:28.754Z,56.09
2023-05-15T00:55:57.647Z,56.14
2023-05-15T00:58:25.130Z,56.26
2023-05-15T01:00:53.264Z,56.29
2023-05-15T01:03:20.731Z,56.46
2023-05-15T01:05:48.025Z,56.64
2023-05-15T01:08:22.128Z,56.59
2023-05-15T01:10:51.224Z,56.42
2023-05-15T01:13:22.474Z,56.07
2023-05-15T01:15:50.042Z,55.59
2023-05-15T01:18:17.339Z,55.61
2023-05-15T01:20:57.342Z,55.51
2023-05-15T01:23:34.836Z,55.27
2023-05-15T01:26:20.112Z,55.10
2023-05-15T01:28:50.640Z,55.11
2023-05-15T01:31:19.738Z,55.24
2023-05-15T01:33:50.269Z,55.60
2023-05-15T01:36:24.997Z,55.70
2023-05-15T01:38:57.654Z,55.90
2023-05-15T01:41:47.153Z,56.21
2023-05-15T01:44:21.878Z,56.21
2023-05-15T01:46:50.541Z,56.29
2023-05-15T01:49:19.222Z,56.28
2023-05-15T01:51:49.473Z,56.34
2023-05-15T01:54:16.633Z,56.48
2023-05-15T01:56:45.530Z,56.62
2023-05-15T01:59:13.708Z,56.87
2023-05-15T02:01:41.222Z,56.95
2023-05-15T02:04:09.016Z,57.09
2023-05-15T02:06:36.378Z,57.27
2023-05-15T02:09:03.725Z,57.31
2023-05-15T02:11:31.186Z,57.52
2023-05-15T02:13:58.438Z,57.77
2023-05-15T02:16:25.646Z,58.13
2023-05-15T02:18:53.431Z,58.40
2023-05-15T02:21:20.709Z,58.44
2023-05-15T02:23:47.965Z,58.24
2023-05-15T02:26:36.921Z,57.99
2023-05-15T02:29:23.429Z,58.17
2023-05-15T02:31:56.452Z,58.54
2023-05-15T02:34:33.101Z,58.44
2023-05-15T02:37:01.459Z,58.52
2023-05-15T02:39:28.625Z,58.51
2023-05-15T02:41:55.871Z,58.33
2023-05-15T02:44:23.329Z,58.23
2023-05-15T02:46:50.638Z,58.39
2023-05-15T02:49:18.246Z,58.50
2023-05-15T02:51:47.960Z,58.63
2023-05-15T02:54:15.107Z,58.80
2023-05-15T02:56:42.254Z,58.92
2023-05-15T02:59:09.507Z,59.13
2023-05-15T03:01:36.799Z,59.38
2023-05-15T03:04:04.332Z,59.32
2023-05-15T03:06:31.985Z,59.32
2023-05-15T03:08:59.136Z,59.46
2023-05-15T03:11:27.318Z,59.50
2023-05-15T03:13:54.464Z,59.46
2023-05-15T03:16:21.627Z,59.21
2023-05-15T03:18:48.769Z,59.33
2023-05-15T03:21:16.112Z,59.53
2023-05-15T03:23:43.265Z,59.49
2023-05-15T03:26:10.416Z,59.61
2023-05-15T03:28:37.777Z,59.33
2023-05-15T03:31:08.959Z,59.47
2023-05-15T03:33:36.170Z,59.71
2023-05-15T03:36:03.553Z,59.56
2023-05-15T03:38:30.682Z,60.05
2023-05-15T03:40:57.826Z,60.35
2023-05-15T03:43:25.285Z,60.43
2023-05-15T03:45:52.553Z,60.30
2023-05-15T03:48:19.692Z,60.25
2023-05-15T03:50:46.856Z,60.02
2023-05-15T03:53:13.996Z,60.01
2023-05-15T03:55:41.147Z,59.61
2023-05-15T03:58:08.299Z,58.12
2023-05-15T04:00:35.453Z,57.73
2023-05-15T04:03:02.749Z,57.72
2023-05-15T04:05:30.201Z,57.68
2023-05-15T04:07:57.430Z,58.14
2023-05-15T04:10:24.813Z,59.36
2023-05-15T04:12:52.239Z,59.22
2023-05-15T04:15:20.238Z,58.79
2023-05-15T04:17:48.426Z,57.60
2023-05-15T04:20:17.698Z,56.50
2023-05-15T04:22:45.141Z,55.80
2023-05-15T04:25:12.601Z,55.37
2023-05-15T04:27:39.752Z,55.40
2023-05-15T04:30:07.952Z,55.66
2023-05-15T04:32:36.125Z,55.71
2023-05-15T04:35:09.679Z,55.49
2023-05-15T04:37:37.473Z,55.17
2023-05-15T04:40:06.842Z,55.58
2023-05-15T04:42:34.553Z,55.62
2023-05-15T04:45:03.142Z,55.30
2023-05-15T04:47:30.392Z,55.33
2023-05-15T04:49:57.534Z,54.80
2023-05-15T04:52:25.297Z,54.31
2023-05-15T04:54:53.889Z,53.82
2023-05-15T04:57:21.768Z,53.48
2023-05-15T04:59:49.026Z,52.64
2023-05-15T05:02:16.163Z,52.32
2023-05-15T05:04:43.630Z,51.99
2023-05-15T05:07:10.707Z,51.57
2023-05-15T05:09:39.623Z,50.04
2023-05-15T05:12:08.347Z,49.41
2023-05-15T05:14:35.515Z,48.80
2023-05-15T05:17:02.977Z,48.03
2023-05-15T05:19:30.231Z,48.11
2023-05-15T05:21:58.720Z,48.29
2023-05-15T05:24:25.882Z,47.84
2023-05-15T05:26:53.033Z,47.45
2023-05-15T05:29:20.174Z,47.37
2023-05-15T05:31:47.788Z,47.21
2023-05-15T05:34:14.988Z,47.23
2023-05-15T05:36:42.445Z,46.37
2023-05-15T05:39:09.596Z,46.57
2023-05-15T05:41:38.077Z,45.58
2023-05-15T05:44:05.337Z,45.11
2023-05-15T05:46:32.504Z,45.15
2023-05-15T05:48:59.736Z,44.87
2023-05-15T05:51:26.887Z,44.46
2023-05-15T05:53:54.040Z,44.10
2023-05-15T05:56:22.112Z,43.99
2023-05-15T05:58:49.263Z,43.43
2023-05-15T06:01:16.925Z,43.39
2023-05-15T06:03:44.146Z,43.49
2023-05-15T06:06:11.871Z,43.47
2023-05-15T06:08:38.970Z,42.48
2023-05-15T06:11:06.659Z,41.80
2023-05-15T06:13:33.739Z,41.85
2023-05-15T06:16:00.789Z,40.52
2023-05-15T06:18:27.944Z,40.88
2023-05-15T06:20:55.163Z,40.07
2023-05-15T06:23:24.376Z,39.41
2023-05-15T06:25:51.716Z,39.48
2023-05-15T06:28:18.969Z,38.41
2023-05-15T06:30:47.463Z,36.66
2023-05-15T06:33:14.653Z,36.83
2023-05-15T06:35:41.757Z,36.81
2023-05-15T06:38:08.910Z,35.80
2023-05-15T06:40:36.164Z,35.45
2023-05-15T06:43:03.933Z,35.48
2023-05-15T06:45:31.593Z,35.72
2023-05-15T06:48:01.649Z,35.12
2023-05-15T06:50:29.272Z,33.83
2023-05-15T06:52:56.432Z,34.12
2023-05-15T06:55:23.722Z,33.79
2023-05-15T06:57:51.147Z,33.26
2023-05-15T07:00:18.837Z,33.91
2023-05-15T07:02:46.298Z,33.45
2023-05-15T07:05:14.599Z,32.24
2023-05-15T07:07:42.095Z,32.05
2023-05-15T07:10:09.670Z,31.71
2023-05-15T07:12:36.815Z,30.70
2023-05-15T07:15:05.373Z,30.69
2023-05-15T07:17:33.821Z,30.05
2023-05-15T07:20:01.153Z,30.43
2023-05-15T07:22:29.418Z,30.02
2023-05-15T07:24:56.660Z,29.00
2023-05-15T07:27:23.815Z,28.70
2023-05-15T07:29:50.977Z,27.53
2023-05-15T07:32:18.134Z,28.05
2023-05-15T07:34:45.378Z,28.46
2023-05-15T07:37:13.241Z,28.80
2023-05-15T07:39:41.291Z,28.95
2023-05-15T07:42:08.573Z,29.22
2023-05-15T07:44:36.023Z,27.96
2023-05-15T07:47:03.902Z,27.68
2023-05-15T07:49:31.149Z,27.01
2023-05-15T07:51:58.295Z,27.14
2023-05-15T07:54:27.084Z,26.93
2023-05-15T07:56:54.666Z,26.65
2023-05-15T07:59:21.952Z,26.81
2023-05-15T08:01:49.151Z,26.38
2023-05-15T08:04:16.323Z,25.79
2023-05-15T08:06:44.613Z,26.03
2023-05-15T08:09:13.102Z,25.56
2023-05-15T08:11:40.219Z,25.30
2023-05-15T08:14:07.390Z,25.31
2023-05-15T08:16:34.680Z,24.69
2023-05-15T08:19:05.063Z,24.79
2023-05-15T08:21:32.611Z,25.14
2023-05-15T08:24:00.828Z,25.41
2023-05-15T08:26:28.052Z,25.47
2023-05-15T08:28:55.188Z,24.38
2023-05-15T08:31:22.418Z,24.67
2023-05-15T08:33:49.816Z,24.61
2023-05-15T08:36:18.589Z,24.13
2023-05-15T08:38:45.951Z,24.45
2023-05-15T08:41:38.676Z,24.53
2023-05-15T08:44:07.088Z,24.79
2023-05-15T08:46:34.849Z,23.38
2023-05-15T08:49:03.885Z,22.54
2023-05-15T08:51:31.099Z,22.82
2023-05-15T08:53:58.349Z,23.22
2023-05-15T08:56:25.501Z,22.82
2023-05-15T08:58:54.262Z,22.58
2023-05-15T09:01:21.487Z,22.64
2023-05-15T09:03:48.810Z,22.49
2023-05-15T09:06:16.158Z,21.99
2023-05-15T09:08:43.310Z,22.61
2023-05-15T09:11:10.461Z,22.46
2023-05-15T09:13:37.621Z,22.35
2023-05-15T09:16:05.320Z,22.86
2023-05-15T09:18:32.457Z,23.69
2023-05-15T09:21:29.180Z,24.19
2023-05-15T09:24:13.433Z,23.21
2023-05-15T09:26:40.784Z,22.52
2023-05-15T09:29:07.946Z,22.55
2023-05-15T09:31:35.192Z,22.23
2023-05-15T09:34:04.802Z,22.11
2023-05-15T09:36:32.880Z,22.03
2023-05-15T09:39:00.732Z,22.31
2023-05-15T09:41:28.911Z,23.12
2023-05-15T09:43:57.189Z,23.45
2023-05-15T09:46:24.604Z,22.16
2023-05-15T09:48:55.915Z,22.39
2023-05-15T09:51:23.056Z,22.55
2023-05-15T09:53:51.723Z,22.41
2023-05-15T09:56:18.997Z,22.85
2023-05-15T09:58:56.661Z,22.69
2023-05-15T10:01:24.195Z,22.74
2023-05-15T10:04:03.801Z,23.51
2023-05-15T10:06:37.836Z,23.07
2023-05-15T10:09:05.366Z,23.22
2023-05-15T10:11:34.677Z,23.19
2023-05-15T10:14:09.518Z,23.29
2023-05-15T10:16:38.120Z,23.20
2023-05-15T10:19:08.853Z,23.46
2023-05-15T10:21:37.784Z,23.90
2023-05-15T10:24:05.291Z,23.99
2023-05-15T10:26:38.465Z,23.44
2023-05-15T10:29:16.597Z,23.87
2023-05-15T10:31:43.755Z,23.43
2023-05-15T10:34:11.300Z,24.17
2023-05-15T10:36:38.936Z,23.84
2023-05-15T10:39:07.232Z,23.38
2023-05-15T10:41:36.810Z,23.26
2023-05-15T10:44:03.992Z,23.01
2023-05-15T10:46:32.816Z,22.96
2023-05-15T10:49:00.865Z,23.02
2023-05-15T10:51:29.242Z,22.50
2023-05-15T10:53:56.901Z,23.09
2023-05-15T10:56:29.866Z,23.22
2023-05-15T10:58:57.153Z,22.59
2023-05-15T11:01:32.414Z,21.94
2023-05-15T11:04:13.572Z,21.30
2023-05-15T11:06:45.274Z,20.26
2023-05-15T11:09:33.162Z,20.57
2023-05-15T11:12:05.094Z,20.43
2023-05-15T11:14:34.887Z,19.65
2023-05-15T11:17:12.136Z,19.17
2023-05-15T11:19:51.795Z,19.68
2023-05-15T11:22:19.962Z,19.35
2023-05-15T11:25:12.258Z,19.49
2023-05-15T11:27:40.780Z,18.95
2023-05-15T11:30:20.689Z,19.23
2023-05-15T11:32:47.867Z,19.05
2023-05-15T11:35:20.000Z,18.36
2023-05-15T11:37:48.734Z,18.35
2023-05-15T11:40:26.776Z,18.58
2023-05-15T11:43:07.402Z,18.90
2023-05-15T11:45:37.018Z,18.62
2023-05-15T11:48:05.013Z,18.58
2023-05-15T11:50:33.992Z,18.86
2023-05-15T11:53:08.362Z,18.84
2023-05-15T11:55:37.061Z,18.74
2023-05-15T11:58:04.544Z,19.56
2023-05-15T12:00:32.152Z,19.09
2023-05-15T12:02:59.610Z,19.05
2023-05-15T12:05:26.818Z,19.18
2023-05-15T12:07:54.075Z,19.11
2023-05-15T12:10:21.124Z,19.10
2023-05-15T12:12:48.775Z,19.42
2023-05-15T12:15:17.485Z,19.63
2023-05-15T12:17:45.424Z,19.76
2023-05-15T12:20:17.088Z,20.31
2023-05-15T12:22:44.463Z,20.37
2023-05-15T12:25:12.634Z,19.95
2023-05-15T12:27:39.794Z,19.68
2023-05-15T12:30:07.598Z,20.21
2023-05-15T12:32:36.238Z,20.14
2023-05-15T12:35:04.004Z,20.25
2023-05-15T12:37:35.889Z,20.66
2023-05-15T12:40:13.233Z,20.59
2023-05-15T12:42:43.599Z,19.72
2023-05-15T12:45:18.612Z,19.50
2023-05-15T12:47:46.973Z,20.43
2023-05-15T12:50:22.154Z,20.86
2023-05-15T12:52:53.384Z,21.39
2023-05-15T12:55:34.150Z,20.77
2023-05-15T12:58:04.584Z,19.73
2023-05-15T13:00:34.607Z,20.02
2023-05-15T13:03:02.246Z,19.53
2023-05-15T13:05:32.284Z,18.31
2023-05-15T13:10:47.992Z,18.58
2023-05-15T13:13:15.766Z,18.31
2023-05-15T13:15:46.226Z,18.10
2023-05-15T13:18:14.635Z,18.35
2023-05-15T13:20:46.546Z,18.41
2023-05-15T13:23:16.355Z,18.08
2023-05-15T13:25:43.823Z,17.90
2023-05-15T13:28:11.468Z,18.07
2023-05-15T13:30:42.242Z,18.00
2023-05-15T13:33:13.014Z,18.44
2023-05-15T13:35:40.516Z,17.93
2023-05-15T13:38:11.178Z,18.11
2023-05-15T13:40:39.329Z,18.39
2023-05-15T13:43:07.039Z,18.89
2023-05-15T13:45:34.422Z,19.31
2023-05-15T13:48:01.992Z,19.75
2023-05-15T13:50:29.271Z,20.05
2023-05-15T13:52:56.622Z,19.96
2023-05-15T13:55:24.274Z,20.14
2023-05-15T13:57:52.351Z,20.37
2023-05-15T14:00:20.366Z,20.67
2023-05-15T14:02:48.539Z,20.73
2023-05-15T14:05:16.596Z,20.97
2023-05-15T14:07:43.936Z,21.01
2023-05-15T14:10:12.214Z,21.40
2023-05-15T14:12:39.969Z,21.32
2023-05-15T14:15:07.798Z,21.50
2023-05-15T14:17:35.534Z,21.06
2023-05-15T14:20:02.863Z,21.42
2023-05-15T14:22:30.118Z,21.59
2023-05-15T14:24:57.572Z,21.61
2023-05-15T14:27:24.726Z,21.44
2023-05-15T14:29:52.384Z,21.74
2023-05-15T14:32:19.785Z,21.85
2023-05-15T14:34:47.313Z,21.56
2023-05-15T14:37:14.462Z,21.63
2023-05-15T14:39:41.615Z,21.07
2023-05-15T14:42:08.758Z,21.34
2023-05-15T14:44:35.919Z,21.06
2023-05-15T14:47:07.884Z,21.13
2023-05-15T14:49:36.055Z,21.41
2023-05-15T14:52:03.855Z,21.53
2023-05-15T14:54:32.327Z,20.78
2023-05-15T14:57:00.368Z,21.27
2023-05-15T14:59:28.245Z,21.16
2023-05-15T15:01:55.675Z,21.08
2023-05-15T15:04:22.850Z,21.63
2023-05-15T15:06:50.101Z,21.94
2023-05-15T15:09:19.536Z,22.03
2023-05-15T15:11:48.201Z,21.76
2023-05-15T15:14:15.346Z,21.92
2023-05-15T15:16:44.500Z,22.17
2023-05-15T15:19:12.655Z,22.24
2023-05-15T15:21:40.227Z,22.19
2023-05-15T15:24:07.482Z,21.99
2023-05-15T15:26:34.592Z,22.50
2023-05-15T15:29:01.847Z,22.31
2023-05-15T15:31:29.934Z,22.45
2023-05-15T15:33:57.501Z,22.72
2023-05-15T15:36:25.157Z,22.73
2023-05-15T15:38:52.506Z,23.07
2023-05-15T15:41:21.797Z,23.44
2023-05-15T15:43:49.167Z,23.68
2023-05-15T15:46:16.357Z,23.58
2023-05-15T15:48:43.495Z,23.44
2023-05-15T15:51:10.619Z,23.62
2023-05-15T15:53:38.694Z,23.60
2023-05-15T15:56:07.369Z,24.07
2023-05-15T15:58:34.536Z,24.19
2023-05-15T16:01:02.787Z,24.44
2023-05-15T16:03:31.802Z,24.62
2023-05-15T16:06:00.351Z,24.76
2023-05-15T16:08:27.961Z,24.79
2023-05-15T16:10:55.434Z,24.81
2023-05-15T16:13:23.708Z,24.91
2023-05-15T16:15:50.973Z,25.08
2023-05-15T16:18:18.117Z,25.40
2023-05-15T16:20:45.265Z,25.61
2023-05-15T16:23:15.427Z,25.93
2023-05-15T16:25:44.397Z,26.16
2023-05-15T16:28:12.385Z,26.22
2023-05-15T16:30:48.741Z,26.32
2023-05-15T16:33:17.999Z,26.61
2023-05-15T16:35:45.791Z,26.79
2023-05-15T16:38:13.568Z,27.05
2023-05-15T16:40:40.712Z,27.22
2023-05-15T16:43:07.962Z,27.41
2023-05-15T16:45:35.053Z,27.72
2023-05-15T16:48:02.242Z,27.83
2023-05-15T16:50:31.175Z,27.78
2023-05-15T16:52:59.262Z,28.11
2023-05-15T16:55:26.808Z,28.13
2023-05-15T16:57:53.952Z,27.99
2023-05-15T17:00:21.541Z,28.15
2023-05-15T17:02:49.461Z,28.27
2023-05-15T17:05:16.809Z,28.48
2023-05-15T17:07:44.745Z,28.68
2023-05-15T17:10:12.384Z,28.69
2023-05-15T17:12:39.539Z,28.91
2023-05-15T17:15:07.548Z,29.01
2023-05-15T17:17:34.836Z,28.92
2023-05-15T17:20:03.147Z,29.00
2023-05-15T17:22:30.707Z,29.16
2023-05-15T17:24:57.956Z,29.29
2023-05-15T17:27:25.049Z,29.39
2023-05-15T17:29:52.324Z,29.50
2023-05-15T17:32:19.767Z,29.59
2023-05-15T17:34:47.303Z,29.68
2023-05-15T17:37:14.661Z,29.84
2023-05-15T17:39:41.916Z,30.04
2023-05-15T17:42:09.051Z,30.07
2023-05-15T17:44:36.608Z,30.33
2023-05-15T17:47:03.872Z,30.21
2023-05-15T17:49:31.226Z,30.25
2023-05-15T17:51:58.380Z,30.52
2023-05-15T17:54:25.838Z,30.64
2023-05-15T17:56:52.989Z,30.50
2023-05-15T17:59:20.144Z,30.46
2023-05-15T18:01:47.350Z,30.75
2023-05-15T18:04:15.049Z,31.14
2023-05-15T18:06:42.416Z,31.27
2023-05-15T18:09:09.784Z,31.15
2023-05-15T18:11:37.036Z,31.12
2023-05-15T18:14:04.183Z,31.43
2023-05-15T18:16:32.980Z,31.13
2023-05-15T18:19:00.506Z,31.03
2023-05-15T18:21:27.790Z,31.03
2023-05-15T18:23:54.946Z,30.93
2023-05-15T18:26:22.403Z,30.97
2023-05-15T18:28:49.973Z,30.98
2023-05-15T18:31:17.181Z,30.91
2023-05-15T18:33:45.331Z,31.01
2023-05-15T18:36:12.561Z,31.43
2023-05-15T18:38:39.808Z,31.37
2023-05-15T18:41:06.971Z,31.56
2023-05-15T18:43:34.115Z,31.70
2023-05-15T18:46:01.485Z,31.66
2023-05-15T18:48:28.642Z,31.60
2023-05-15T18:50:56.189Z,32.00
2023-05-15T18:53:23.362Z,31.96
2023-05-15T18:55:50.605Z,32.35
2023-05-15T18:58:17.852Z,32.34
2023-05-15T19:00:45.091Z,32.88
2023-05-15T19:03:12.445Z,33.28
2023-05-15T19:05:39.729Z,33.83
2023-05-15T19:08:07.490Z,34.45
2023-05-15T19:10:34.650Z,34.68
2023-05-15T19:13:01.793Z,35.12
2023-05-15T19:15:28.949Z,35.16
2023-05-15T19:17:56.328Z,35.31
2023-05-15T19:20:23.657Z,35.54
2023-05-15T19:22:51.116Z,35.46
2023-05-15T19:25:18.279Z,35.52
2023-05-15T19:27:46.344Z,35.80
2023-05-15T19:30:13.503Z,35.60
2023-05-15T19:32:40.945Z,36.10
2023-05-15T19:35:09.352Z,36.40
2023-05-15T19:37:36.804Z,36.46
2023-05-15T19:40:04.833Z,36.54
2023-05-15T19:42:31.927Z,36.80
2023-05-15T19:44:59.080Z,36.87
2023-05-15T19:47:27.026Z,37.10
2023-05-15T19:49:54.412Z,37.19
2023-05-15T19:52:21.562Z,37.02
2023-05-15T19:54:48.711Z,37.33
2023-05-15T19:57:16.172Z,37.51
2023-05-15T19:59:43.330Z,37.41
2023-05-15T20:02:11.484Z,37.36
2023-05-15T20:04:38.774Z,37.37
2023-05-15T20:07:05.910Z,37.54
2023-05-15T20:09:33.267Z,38.23
2023-05-15T20:12:01.043Z,38.02
2023-05-15T20:14:28.286Z,37.41
2023-05-15T20:16:55.440Z,37.06
2023-05-15T20:19:24.776Z,37.26
2023-05-15T20:21:52.205Z,37.16
2023-05-15T20:24:19.464Z,37.16
2023-05-15T20:26:46.613Z,37.31
2023-05-15T20:29:13.869Z,37.22
2023-05-15T20:31:41.160Z,37.26
2023-05-15T20:34:08.472Z,37.43
2023-05-15T20:36:39.094Z,37.48
2023-05-15T20:39:07.676Z,37.57
2023-05-15T20:41:35.065Z,37.61
2023-05-15T20:44:02.427Z,37.75
2023-05-15T20:46:30.723Z,37.76
2023-05-15T20:48:58.162Z,37.88
2023-05-15T20:51:25.517Z,37.99
2023-05-15T20:53:52.672Z,38.08
2023-05-15T20:56:19.938Z,38.27
2023-05-15T20:58:47.080Z,38.28
2023-05-15T21:01:16.047Z,38.34
2023-05-15T21:03:43.698Z,38.48
2023-05-15T21:06:11.306Z,38.54
2023-05-15T21:08:38.456Z,38.71
2023-05-15T21:11:05.707Z,38.77
2023-05-15T21:13:32.889Z,38.74
2023-05-15T21:16:00.035Z,39.16
2023-05-15T21:18:27.138Z,39.30
2023-05-15T21:20:54.220Z,39.55
2023-05-15T21:23:21.681Z,39.36
2023-05-15T21:25:48.839Z,39.48
2023-05-15T21:28:16.397Z,39.55
2023-05-15T21:30:43.563Z,39.48
2023-05-15T21:33:10.960Z,39.63
2023-05-15T21:35:38.465Z,39.94
2023-05-15T21:38:05.734Z,40.09
2023-05-15T21:40:33.102Z,39.95
2023-05-15T21:43:00.338Z,39.83
2023-05-15T21:45:27.487Z,39.96
2023-05-15T21:47:54.708Z,40.09
2023-05-15T21:50:21.897Z,40.20
2023-05-15T21:52:51.126Z,40.27
2023-05-15T21:55:18.562Z,40.45
2023-05-15T21:57:45.710Z,40.67
2023-05-15T22:00:14.229Z,40.72
2023-05-15T22:02:41.678Z,40.70
2023-05-15T22:05:09.043Z,40.93
2023-05-15T22:07:36.262Z,41.22
2023-05-15T22:10:03.937Z,41.17
2023-05-15T22:12:32.514Z,41.39
2023-05-15T22:15:00.076Z,41.82
2023-05-15T22:17:29.458Z,42.93
2023-05-15T22:20:07.678Z,43.39
2023-05-15T22:22:35.830Z,43.24
2023-05-15T22:25:03.946Z,43.11
2023-05-15T22:27:31.200Z,43.23
2023-05-15T22:29:58.364Z,43.12
2023-05-15T22:32:26.144Z,42.96
2023-05-15T22:34:53.376Z,42.98
2023-05-15T22:37:20.738Z,42.74
2023-05-15T22:39:48.020Z,42.84
2023-05-15T22:42:15.548Z,42.94
2023-05-15T22:44:42.702Z,43.05
2023-05-15T22:47:09.867Z,43.28
2023-05-15T22:49:38.333Z,43.18
2023-05-15T22:52:06.240Z,43.37
2023-05-15T22:54:33.668Z,43.63
2023-05-15T22:57:01.329Z,43.96
2023-05-15T22:59:28.690Z,44.37
2023-05-15T23:01:56.055Z,44.87
2023-05-15T23:04:23.265Z,44.71
2023-05-15T23:06:50.448Z,44.51
2023-05-15T23:09:17.600Z,44.48
2023-05-15T23:11:44.752Z,44.59
2023-05-15T23:14:12.416Z,44.68
2023-05-15T23:16:39.571Z,45.00
2023-05-15T23:19:06.813Z,44.92
2023-05-15T23:21:34.073Z,44.90
2023-05-15T23:24:01.433Z,45.17
2023-05-15T23:26:28.589Z,45.20
2023-05-15T23:28:55.740Z,45.20
2023-05-15T23:31:23.139Z,45.11
2023-05-15T23:33:50.987Z,45.37
2023-05-15T23:36:18.527Z,45.50
2023-05-15T23:38:45.808Z,45.19
2023-05-15T23:41:13.036Z,45.38
2023-05-15T23:43:40.188Z,45.09
2023-05-15T23:46:07.370Z,44.98
2023-05-15T23:48:34.589Z,45.17
2023-05-15T23:51:01.843Z,45.44
2023-05-15T23:53:29.001Z,45.20
2023-05-15T23:55:56.152Z,44.95
2023-05-15T23:58:23.912Z,44.80
